Time,TemperatureF,DewpointF,PressureIn,WindDirection,WindDirectionDegrees,WindSpeedMPH,WindSpeedGustMPH,Humidity,HourlyPrecipIn,Conditions,Clouds,dailyrainin,SoftwareType,DateUTC
2016-02-05 00:09:00,47.1,41.6,30.38,ENE,65,3.0,3.0,81,0.00,,,0.00,Wunderground v.1.15,2016-02-05 08:09:00,
2016-02-05 00:14:00,47.0,41.5,30.38,ENE,64,3.0,3.0,81,0.00,,,0.00,Wunderground v.1.15,2016-02-05 08:14:00,
2016-02-05 00:19:00,46.9,41.4,30.38,ENE,70,3.0,3.0,81,0.00,,,0.00,Wunderground v.1.15,2016-02-05 08:19:00,
2016-02-05 00:24:00,47.0,41.5,30.38,ENE,69,2.0,2.0,81,0.00,,,0.00,Wunderground v.1.15,2016-02-05 08:24:00,
2016-02-05 00:29:00,47.3,41.8,30.38,NE,50,2.0,2.0,81,0.00,,,0.00,Wunderground v.1.15,2016-02-05 08:29:00,
2016-02-05 00:39:00,48.2,41.7,30.38,East,86,2.0,3.0,78,0.00,,,0.00,Wunderground v.1.15,2016-02-05 08:39:00,
2016-02-05 00:44:00,48.3,41.4,30.38,North,8,2.0,2.0,77,0.00,,,0.00,Wunderground v.1.15,2016-02-05 08:44:00,
2016-02-05 00:49:00,47.4,41.2,30.38,NNE,27,2.0,4.0,79,0.00,,,0.00,Wunderground v.1.15,2016-02-05 08:49:00,
2016-02-05 00:54:00,46.9,41.1,30.38,NNE,27,2.0,2.0,80,0.00,,,0.00,Wunderground v.1.15,2016-02-05 08:54:00,
2016-02-05 00:59:00,46.5,41.0,30.38,NNE,27,3.0,3.0,81,0.00,,,0.00,Wunderground v.1.15,2016-02-05 08:59:00,
2016-02-05 01:09:00,46.9,41.1,30.38,NNE,27,2.0,3.0,80,0.00,,,0.00,Wunderground v.1.15,2016-02-05 09:09:00,
2016-02-05 01:14:00,47.1,41.2,30.38,NNE,27,1.0,1.0,80,0.00,,,0.00,Wunderground v.1.15,2016-02-05 09:14:00,
2016-02-05 01:19:00,47.5,41.3,30.38,NNE,27,1.0,1.0,79,0.00,,,0.00,Wunderground v.1.15,2016-02-05 09:19:00,
2016-02-05 01:24:00,47.6,41.4,30.38,ENE,77,2.0,2.0,79,0.00,,,0.00,Wunderground v.1.15,2016-02-05 09:24:00,
2016-02-05 01:29:00,47.5,41.3,30.38,ENE,64,2.0,2.0,79,0.00,,,0.00,Wunderground v.1.15,2016-02-05 09:29:00,
2016-02-05 01:39:00,47.0,40.8,30.38,ENE,70,2.0,2.0,79,0.00,,,0.00,Wunderground v.1.15,2016-02-05 09:39:00,
2016-02-05 01:44:00,47.4,40.9,30.38,NE,49,2.0,2.0,78,0.00,,,0.00,Wunderground v.1.15,2016-02-05 09:44:00,
2016-02-05 01:54:00,48.1,40.9,30.38,NNE,28,3.0,4.0,76,0.00,,,0.00,Wunderground v.1.15,2016-02-05 09:54:00,
2016-02-05 01:59:00,48.6,41.0,30.38,NE,34,4.0,4.0,75,0.00,,,0.00,Wunderground v.1.15,2016-02-05 09:59:00,
2016-02-05 02:09:00,48.6,40.7,30.38,North,360,4.0,5.0,74,0.00,,,0.00,Wunderground v.1.15,2016-02-05 10:09:00,
2016-02-05 02:14:00,48.5,40.9,30.38,NNE,31,4.0,4.0,75,0.00,,,0.00,Wunderground v.1.15,2016-02-05 10:14:00,
2016-02-05 02:19:00,48.3,40.7,30.39,North,9,3.0,4.0,75,0.00,,,0.00,Wunderground v.1.15,2016-02-05 10:19:00,
2016-02-05 02:29:00,47.9,40.4,30.39,NNE,20,1.0,3.0,75,0.00,,,0.00,Wunderground v.1.15,2016-02-05 10:29:00,
2016-02-05 02:39:00,47.2,40.0,30.39,SSW,208,1.0,1.0,76,0.00,,,0.00,Wunderground v.1.15,2016-02-05 10:39:00,
2016-02-05 02:44:00,47.0,40.2,30.39,SSW,208,1.0,1.0,77,0.00,,,0.00,Wunderground v.1.15,2016-02-05 10:44:00,
2016-02-05 02:49:00,47.2,40.4,30.39,SSW,207,1.0,1.0,77,0.00,,,0.00,Wunderground v.1.15,2016-02-05 10:49:00,
2016-02-05 02:54:00,47.5,40.6,30.39,SE,134,1.0,1.0,77,0.00,,,0.00,Wunderground v.1.15,2016-02-05 10:54:00,
2016-02-05 03:04:00,47.7,40.5,30.39,NNW,335,1.0,1.0,76,0.00,,,0.00,Wunderground v.1.15,2016-02-05 11:04:00,
2016-02-05 03:09:00,47.6,40.4,30.39,North,5,1.0,1.0,76,0.00,,,0.00,Wunderground v.1.15,2016-02-05 11:09:00,
2016-02-05 03:14:00,47.8,40.6,30.39,NE,39,1.0,4.0,76,0.00,,,0.00,Wunderground v.1.15,2016-02-05 11:14:00,
2016-02-05 03:19:00,48.0,40.8,30.39,ENE,77,2.0,4.0,76,0.00,,,0.00,Wunderground v.1.15,2016-02-05 11:19:00,
2016-02-05 03:24:00,48.0,40.5,30.39,SSW,209,2.0,2.0,75,0.00,,,0.00,Wunderground v.1.15,2016-02-05 11:24:00,
2016-02-05 03:29:00,47.9,40.7,30.39,ENE,68,2.0,2.0,76,0.00,,,0.00,Wunderground v.1.15,2016-02-05 11:29:00,
2016-02-05 03:39:00,48.3,40.7,30.39,NNW,340,3.0,4.0,75,0.00,,,0.00,Wunderground v.1.15,2016-02-05 11:39:00,
2016-02-05 03:44:00,47.9,40.7,30.39,WNW,295,2.0,2.0,76,0.00,,,0.00,Wunderground v.1.15,2016-02-05 11:44:00,
2016-02-05 03:49:00,47.5,40.3,30.39,WNW,291,1.0,2.0,76,0.00,,,0.00,Wunderground v.1.15,2016-02-05 11:49:00,
2016-02-05 03:54:00,47.1,40.3,30.39,WNW,283,1.0,1.0,77,0.00,,,0.00,Wunderground v.1.15,2016-02-05 11:54:00,
2016-02-05 03:59:00,46.7,40.2,30.40,WNW,283,1.0,1.0,78,0.00,,,0.00,Wunderground v.1.15,2016-02-05 11:59:00,
2016-02-05 04:04:00,46.3,39.8,30.40,WNW,283,1.0,1.0,78,0.00,,,0.00,Wunderground v.1.15,2016-02-05 12:04:00,
2016-02-05 04:14:00,45.9,40.1,30.40,WNW,283,0.0,1.0,80,0.00,,,0.00,Wunderground v.1.15,2016-02-05 12:14:00,
2016-02-05 04:19:00,45.9,40.1,30.40,WNW,283,1.0,1.0,80,0.00,,,0.00,Wunderground v.1.15,2016-02-05 12:19:00,
2016-02-05 04:24:00,46.0,40.2,30.40,North,360,1.0,2.0,80,0.00,,,0.00,Wunderground v.1.15,2016-02-05 12:24:00,
2016-02-05 04:29:00,46.3,40.5,30.40,NNE,30,2.0,2.0,80,0.00,,,0.00,Wunderground v.1.15,2016-02-05 12:29:00,
2016-02-05 04:39:00,46.1,40.3,30.40,NNE,30,1.0,2.0,80,0.00,,,0.00,Wunderground v.1.15,2016-02-05 12:39:00,
2016-02-05 04:44:00,45.9,40.1,30.41,NNE,30,1.0,2.0,80,0.00,,,0.00,Wunderground v.1.15,2016-02-05 12:44:00,
2016-02-05 04:49:00,46.0,40.5,30.41,NNE,30,2.0,2.0,81,0.00,,,0.00,Wunderground v.1.15,2016-02-05 12:49:00,
2016-02-05 04:54:00,46.1,40.3,30.41,WNW,293,1.0,1.0,80,0.00,,,0.00,Wunderground v.1.15,2016-02-05 12:54:00,
2016-02-05 04:59:00,46.2,40.4,30.41,North,360,1.0,4.0,80,0.00,,,0.00,Wunderground v.1.15,2016-02-05 12:59:00,
2016-02-05 05:09:00,46.1,40.3,30.41,NNE,18,2.0,2.0,80,0.00,,,0.00,Wunderground v.1.15,2016-02-05 13:09:00,
2016-02-05 05:14:00,46.3,40.5,30.41,North,359,2.0,3.0,80,0.00,,,0.00,Wunderground v.1.15,2016-02-05 13:14:00,
2016-02-05 05:24:00,46.5,40.7,30.41,North,357,2.0,2.0,80,0.00,,,0.00,Wunderground v.1.15,2016-02-05 13:24:00,
2016-02-05 05:29:00,46.6,40.8,30.41,North,357,2.0,2.0,80,0.00,,,0.00,Wunderground v.1.15,2016-02-05 13:29:00,
2016-02-05 05:39:00,46.2,40.0,30.41,NE,54,2.0,2.0,79,0.00,,,0.00,Wunderground v.1.15,2016-02-05 13:39:00,
2016-02-05 05:44:00,45.7,39.9,30.41,East,91,2.0,3.0,80,0.00,,,0.00,Wunderground v.1.15,2016-02-05 13:44:00,
2016-02-05 05:49:00,45.6,40.1,30.41,East,91,2.0,3.0,81,0.00,,,0.00,Wunderground v.1.15,2016-02-05 13:49:00,
2016-02-05 05:59:00,45.5,40.0,30.40,East,91,1.0,2.0,81,0.00,,,0.00,Wunderground v.1.15,2016-02-05 13:59:00,
2016-02-05 06:09:00,45.9,40.1,30.40,NNE,28,2.0,2.0,80,0.00,,,0.00,Wunderground v.1.15,2016-02-05 14:09:00,
2016-02-05 06:14:00,46.5,40.3,30.40,NE,37,2.0,2.0,79,0.00,,,0.00,Wunderground v.1.15,2016-02-05 14:14:00,
2016-02-05 06:19:00,46.7,40.2,30.40,NE,37,2.0,2.0,78,0.00,,,0.00,Wunderground v.1.15,2016-02-05 14:19:00,
2016-02-05 06:24:00,46.5,40.3,30.41,NE,37,1.0,1.0,79,0.00,,,0.00,Wunderground v.1.15,2016-02-05 14:24:00,
2016-02-05 06:34:00,46.2,41.9,30.41,NE,37,1.0,1.0,85,0.00,,,0.00,Wunderground v.1.15,2016-02-05 14:34:00,
2016-02-05 06:39:00,46.3,42.3,30.41,NE,37,0.0,1.0,86,0.00,,,0.00,Wunderground v.1.15,2016-02-05 14:39:00,
2016-02-05 06:44:00,46.3,42.6,30.41,NE,37,0.0,1.0,87,0.00,,,0.00,Wunderground v.1.15,2016-02-05 14:44:00,
2016-02-05 06:49:00,46.2,42.5,30.41,NE,37,1.0,2.0,87,0.00,,,0.00,Wunderground v.1.15,2016-02-05 14:49:00,
2016-02-05 06:54:00,45.8,41.5,30.41,ENE,58,2.0,2.0,85,0.00,,,0.00,Wunderground v.1.15,2016-02-05 14:54:00,
2016-02-05 06:59:00,45.9,41.0,30.41,ENE,58,2.0,2.0,83,0.00,,,0.00,Wunderground v.1.15,2016-02-05 14:59:00,
2016-02-05 07:04:00,45.7,41.1,30.41,ENE,58,1.0,1.0,84,0.00,,,0.00,Wunderground v.1.15,2016-02-05 15:04:00,
2016-02-05 07:09:00,45.4,40.8,30.41,ENE,58,1.0,1.0,84,0.00,,,0.00,Wunderground v.1.15,2016-02-05 15:09:00,
2016-02-05 07:14:00,44.9,40.7,30.42,ENE,58,1.0,1.0,85,0.00,,,0.00,Wunderground v.1.15,2016-02-05 15:14:00,
2016-02-05 07:24:00,44.8,40.9,30.42,East,87,1.0,1.0,86,0.00,,,0.00,Wunderground v.1.15,2016-02-05 15:24:00,
2016-02-05 07:29:00,44.9,41.3,30.41,East,87,1.0,1.0,87,0.00,,,0.00,Wunderground v.1.15,2016-02-05 15:29:00,
2016-02-05 07:34:00,45.0,41.4,30.41,North,11,1.0,2.0,87,0.00,,,0.00,Wunderground v.1.15,2016-02-05 15:34:00,
2016-02-05 07:44:00,45.7,41.4,30.41,NE,37,2.0,3.0,85,0.00,,,0.00,Wunderground v.1.15,2016-02-05 15:44:00,
2016-02-05 07:49:00,46.5,41.6,30.41,NNE,30,3.0,3.0,83,0.00,,,0.00,Wunderground v.1.15,2016-02-05 15:49:00,
2016-02-05 07:54:00,46.8,41.6,30.41,NE,37,3.0,3.0,82,0.00,,,0.00,Wunderground v.1.15,2016-02-05 15:54:00,
2016-02-05 07:59:00,46.9,42.0,30.41,ENE,73,2.0,4.0,83,0.00,,,0.00,Wunderground v.1.15,2016-02-05 15:59:00,
2016-02-05 08:09:00,47.1,42.2,30.42,NE,46,2.0,2.0,83,0.00,,,0.00,Wunderground v.1.15,2016-02-05 16:09:00,
2016-02-05 08:19:00,47.6,42.1,30.42,NE,43,2.0,4.0,81,0.00,,,0.00,Wunderground v.1.15,2016-02-05 16:19:00,
2016-02-05 08:24:00,48.0,42.4,30.42,NE,40,2.0,2.0,81,0.00,,,0.00,Wunderground v.1.15,2016-02-05 16:24:00,
2016-02-05 08:29:00,48.5,42.9,30.42,NE,40,1.0,2.0,81,0.00,,,0.00,Wunderground v.1.15,2016-02-05 16:29:00,
2016-02-05 08:39:00,50.0,44.4,30.42,NE,40,1.0,2.0,81,0.00,,,0.00,Wunderground v.1.15,2016-02-05 16:39:00,
2016-02-05 08:44:00,50.9,44.3,30.42,NE,41,1.0,1.0,78,0.00,,,0.00,Wunderground v.1.15,2016-02-05 16:44:00,
2016-02-05 08:54:00,51.1,44.1,30.42,NE,41,1.0,3.0,77,0.00,,,0.00,Wunderground v.1.15,2016-02-05 16:54:00,
2016-02-05 08:59:00,51.7,44.7,30.42,NE,50,2.0,3.0,77,0.00,,,0.00,Wunderground v.1.15,2016-02-05 16:59:00,
2016-02-05 09:09:00,52.4,44.7,30.41,ENE,67,3.0,4.0,75,0.00,,,0.00,Wunderground v.1.15,2016-02-05 17:09:00,
2016-02-05 09:14:00,52.6,44.5,30.41,NE,36,4.0,4.0,74,0.00,,,0.00,Wunderground v.1.15,2016-02-05 17:14:00,
2016-02-05 09:19:00,52.9,45.2,30.41,ENE,58,4.0,4.0,75,0.00,,,0.00,Wunderground v.1.15,2016-02-05 17:19:00,
2016-02-05 09:29:00,53.8,45.3,30.42,East,85,2.0,4.0,73,0.00,,,0.00,Wunderground v.1.15,2016-02-05 17:29:00,
2016-02-05 09:34:00,54.2,45.7,30.42,NNE,24,2.0,2.0,73,0.00,,,0.00,Wunderground v.1.15,2016-02-05 17:34:00,
2016-02-05 09:44:00,55.4,46.2,30.43,WSW,238,1.0,3.0,71,0.00,,,0.00,Wunderground v.1.15,2016-02-05 17:44:00,
2016-02-05 09:49:00,56.0,46.4,30.43,WSW,255,1.0,3.0,70,0.00,,,0.00,Wunderground v.1.15,2016-02-05 17:49:00,
2016-02-05 09:54:00,56.6,46.5,30.43,West,274,1.0,1.0,69,0.00,,,0.00,Wunderground v.1.15,2016-02-05 17:54:00,
2016-02-05 09:59:00,57.2,46.3,30.43,NW,324,1.0,1.0,67,0.00,,,0.00,Wunderground v.1.15,2016-02-05 17:59:00,
2016-02-05 10:09:00,57.1,45.8,30.44,NNW,334,2.0,3.0,66,0.00,,,0.00,Wunderground v.1.15,2016-02-05 18:09:00,
2016-02-05 10:14:00,57.1,46.6,30.44,WNW,295,2.0,2.0,68,0.00,,,0.00,Wunderground v.1.15,2016-02-05 18:14:00,
2016-02-05 10:19:00,57.5,47.0,30.44,WNW,297,3.0,3.0,68,0.00,,,0.00,Wunderground v.1.15,2016-02-05 18:19:00,
2016-02-05 10:24:00,58.5,47.2,30.44,NW,316,2.0,2.0,66,0.00,,,0.00,Wunderground v.1.15,2016-02-05 18:24:00,
2016-02-05 10:34:00,58.4,47.1,30.43,NW,323,1.0,2.0,66,0.00,,,0.00,Wunderground v.1.15,2016-02-05 18:34:00,
2016-02-05 10:39:00,58.9,48.0,30.43,SSW,208,2.0,4.0,67,0.00,,,0.00,Wunderground v.1.15,2016-02-05 18:39:00,
2016-02-05 10:44:00,59.0,48.4,30.43,South,190,3.0,3.0,68,0.00,,,0.00,Wunderground v.1.15,2016-02-05 18:44:00,
2016-02-05 10:49:00,59.2,48.6,30.43,SW,221,4.0,4.0,68,0.00,,,0.00,Wunderground v.1.15,2016-02-05 18:49:00,
2016-02-05 10:54:00,59.2,48.2,30.43,SSW,201,4.0,4.0,67,0.00,,,0.00,Wunderground v.1.15,2016-02-05 18:54:00,
2016-02-05 11:09:00,60.5,48.3,30.43,North,4,2.0,4.0,64,0.00,,,0.00,Wunderground v.1.15,2016-02-05 19:09:00,
2016-02-05 11:14:00,60.8,49.0,30.43,East,90,2.0,2.0,65,0.00,,,0.00,Wunderground v.1.15,2016-02-05 19:14:00,
2016-02-05 11:19:00,61.2,49.3,30.43,SSW,213,2.0,2.0,65,0.00,,,0.00,Wunderground v.1.15,2016-02-05 19:19:00,
2016-02-05 11:24:00,61.5,49.2,30.43,SSW,198,2.0,2.0,64,0.00,,,0.00,Wunderground v.1.15,2016-02-05 19:24:00,
2016-02-05 11:29:00,61.4,49.1,30.43,SSW,192,2.0,3.0,64,0.00,,,0.00,Wunderground v.1.15,2016-02-05 19:29:00,
2016-02-05 11:39:00,61.7,49.4,30.43,SSW,209,3.0,5.0,64,0.00,,,0.00,Wunderground v.1.15,2016-02-05 19:39:00,
2016-02-05 11:49:00,62.0,49.7,30.43,SSW,195,5.0,5.0,64,0.00,,,0.00,Wunderground v.1.15,2016-02-05 19:49:00,
2016-02-05 11:54:00,62.1,49.4,30.43,SW,216,5.0,5.0,63,0.00,,,0.00,Wunderground v.1.15,2016-02-05 19:54:00,
2016-02-05 11:59:00,62.0,49.7,30.43,South,182,5.0,5.0,64,0.00,,,0.00,Wunderground v.1.15,2016-02-05 19:59:00,
2016-02-05 12:09:00,62.1,50.2,30.43,SSW,196,5.0,5.0,65,0.00,,,0.00,Wunderground v.1.15,2016-02-05 20:09:00,
2016-02-05 12:14:00,62.3,50.0,30.42,SW,226,4.0,4.0,64,0.00,,,0.00,Wunderground v.1.15,2016-02-05 20:14:00,
2016-02-05 12:24:00,62.5,50.6,30.42,South,174,4.0,4.0,65,0.00,,,0.00,Wunderground v.1.15,2016-02-05 20:24:00,
2016-02-05 12:39:00,62.8,50.9,30.41,SW,229,4.0,4.0,65,0.00,,,0.00,Wunderground v.1.15,2016-02-05 20:39:00,
2016-02-05 12:44:00,62.8,51.3,30.41,SSW,212,3.0,3.0,66,0.00,,,0.00,Wunderground v.1.15,2016-02-05 20:44:00,
2016-02-05 12:49:00,63.2,50.8,30.41,SSW,195,3.0,5.0,64,0.00,,,0.00,Wunderground v.1.15,2016-02-05 20:49:00,
2016-02-05 12:54:00,63.5,50.2,30.41,SW,223,4.0,4.0,62,0.00,,,0.00,Wunderground v.1.15,2016-02-05 20:54:00,
2016-02-05 12:59:00,63.7,49.5,30.40,NW,314,3.0,5.0,60,0.00,,,0.00,Wunderground v.1.15,2016-02-05 20:59:00,
2016-02-05 13:09:00,63.2,50.4,30.40,North,358,4.0,7.0,63,0.00,,,0.00,Wunderground v.1.15,2016-02-05 21:09:00,
2016-02-05 13:14:00,63.4,50.6,30.40,North,358,4.0,6.0,63,0.00,,,0.00,Wunderground v.1.15,2016-02-05 21:14:00,
2016-02-05 13:19:00,63.6,50.8,30.40,North,354,5.0,6.0,63,0.00,,,0.00,Wunderground v.1.15,2016-02-05 21:19:00,
2016-02-05 13:29:00,64.4,51.1,30.40,NE,49,3.0,5.0,62,0.00,,,0.00,Wunderground v.1.15,2016-02-05 21:29:00,
2016-02-05 13:39:00,64.6,51.3,30.40,NNE,32,4.0,5.0,62,0.00,,,0.00,Wunderground v.1.15,2016-02-05 21:39:00,
2016-02-05 13:44:00,64.6,51.3,30.39,North,358,5.0,5.0,62,0.00,,,0.00,Wunderground v.1.15,2016-02-05 21:44:00,
2016-02-05 13:49:00,64.5,50.7,30.39,NNE,25,4.0,5.0,61,0.00,,,0.00,Wunderground v.1.15,2016-02-05 21:49:00,
2016-02-05 13:54:00,64.6,51.3,30.39,NE,46,4.0,7.0,62,0.00,,,0.00,Wunderground v.1.15,2016-02-05 21:54:00,
2016-02-05 14:04:00,64.5,51.2,30.39,North,350,4.0,4.0,62,0.00,,,0.00,Wunderground v.1.15,2016-02-05 22:04:00,
2016-02-05 14:09:00,64.7,51.4,30.39,NNE,13,3.0,5.0,62,0.00,,,0.00,Wunderground v.1.15,2016-02-05 22:09:00,
2016-02-05 14:14:00,64.9,51.1,30.38,NNE,18,4.0,6.0,61,0.00,,,0.00,Wunderground v.1.15,2016-02-05 22:14:00,
2016-02-05 14:19:00,65.0,51.2,30.38,North,356,4.0,6.0,61,0.00,,,0.00,Wunderground v.1.15,2016-02-05 22:19:00,
2016-02-05 14:24:00,64.9,51.1,30.38,NE,37,5.0,6.0,61,0.00,,,0.00,Wunderground v.1.15,2016-02-05 22:24:00,
2016-02-05 14:39:00,64.8,51.0,30.38,ENE,65,4.0,5.0,61,0.00,,,0.00,Wunderground v.1.15,2016-02-05 22:39:00,
2016-02-05 14:44:00,64.9,51.1,30.37,ENE,58,3.0,3.0,61,0.00,,,0.00,Wunderground v.1.15,2016-02-05 22:44:00,
2016-02-05 14:49:00,64.8,51.0,30.37,NE,38,5.0,5.0,61,0.00,,,0.00,Wunderground v.1.15,2016-02-05 22:49:00,
2016-02-05 14:54:00,64.9,51.1,30.38,North,10,5.0,5.0,61,0.00,,,0.00,Wunderground v.1.15,2016-02-05 22:54:00,
2016-02-05 14:59:00,65.1,51.3,30.37,NE,48,4.0,5.0,61,0.00,,,0.00,Wunderground v.1.15,2016-02-05 22:59:00,
2016-02-05 15:09:00,65.1,51.3,30.37,North,358,5.0,8.0,61,0.00,,,0.00,Wunderground v.1.15,2016-02-05 23:09:00,
2016-02-05 15:14:00,65.1,51.3,30.37,North,11,5.0,5.0,61,0.00,,,0.00,Wunderground v.1.15,2016-02-05 23:14:00,
2016-02-05 15:19:00,65.1,51.3,30.37,North,1,5.0,5.0,61,0.00,,,0.00,Wunderground v.1.15,2016-02-05 23:19:00,
2016-02-05 15:29:00,64.7,50.9,30.36,NNE,17,6.0,8.0,61,0.00,,,0.00,Wunderground v.1.15,2016-02-05 23:29:00,
2016-02-05 15:39:00,64.3,51.4,30.36,North,358,5.0,6.0,63,0.00,,,0.00,Wunderground v.1.15,2016-02-05 23:39:00,
2016-02-05 15:49:00,64.2,51.3,30.36,NNE,18,4.0,8.0,63,0.00,,,0.00,Wunderground v.1.15,2016-02-05 23:49:00,
2016-02-05 15:59:00,63.9,51.1,30.36,North,360,4.0,6.0,63,0.00,,,0.00,Wunderground v.1.15,2016-02-05 23:59:00,
2016-02-05 16:09:00,63.6,50.8,30.36,NNE,14,5.0,5.0,63,0.00,,,0.00,Wunderground v.1.15,2016-02-06 00:09:00,
2016-02-05 16:29:00,62.3,50.4,30.35,NE,42,6.0,7.0,65,0.00,,,0.00,Wunderground v.1.15,2016-02-06 00:29:00,
2016-02-05 16:39:00,61.4,49.9,30.35,ENE,57,6.0,6.0,66,0.00,,,0.00,Wunderground v.1.15,2016-02-06 00:39:00,
2016-02-05 16:44:00,60.7,49.7,30.36,North,360,6.0,6.0,67,0.00,,,0.00,Wunderground v.1.15,2016-02-06 00:44:00,
2016-02-05 16:49:00,60.0,49.4,30.36,North,3,6.0,7.0,68,0.00,,,0.00,Wunderground v.1.15,2016-02-06 00:49:00,
2016-02-05 16:59:00,59.3,49.1,30.35,NNE,13,6.0,6.0,69,0.00,,,0.00,Wunderground v.1.15,2016-02-06 00:59:00,
2016-02-05 17:04:00,59.0,49.2,30.36,North,360,6.0,6.0,70,0.00,,,0.00,Wunderground v.1.15,2016-02-06 01:04:00,
2016-02-05 17:09:00,58.6,48.8,30.36,NNE,13,6.0,8.0,70,0.00,,,0.00,Wunderground v.1.15,2016-02-06 01:09:00,
2016-02-05 17:14:00,58.2,48.8,30.36,NNE,26,6.0,8.0,71,0.00,,,0.00,Wunderground v.1.15,2016-02-06 01:14:00,
2016-02-05 17:19:00,57.8,48.5,30.36,NNE,18,6.0,8.0,71,0.00,,,0.00,Wunderground v.1.15,2016-02-06 01:19:00,
2016-02-05 17:24:00,57.4,48.4,30.35,North,360,7.0,10.0,72,0.00,,,0.00,Wunderground v.1.15,2016-02-06 01:24:00,
2016-02-05 17:34:00,56.9,48.3,30.35,North,2,6.0,6.0,73,0.00,,,0.00,Wunderground v.1.15,2016-02-06 01:34:00,
2016-02-05 17:39:00,56.7,48.1,30.36,North,358,6.0,6.0,73,0.00,,,0.00,Wunderground v.1.15,2016-02-06 01:39:00,
2016-02-05 17:44:00,56.4,48.2,30.36,NE,41,6.0,6.0,74,0.00,,,0.00,Wunderground v.1.15,2016-02-06 01:44:00,
2016-02-05 17:49:00,56.2,48.0,30.36,North,358,5.0,6.0,74,0.00,,,0.00,Wunderground v.1.15,2016-02-06 01:49:00,
2016-02-05 17:54:00,56.1,47.9,30.36,NNE,31,5.0,5.0,74,0.00,,,0.00,Wunderground v.1.15,2016-02-06 01:54:00,
2016-02-05 17:59:00,55.9,47.7,30.36,North,360,5.0,5.0,74,0.00,,,0.00,Wunderground v.1.15,2016-02-06 01:59:00,
2016-02-05 18:04:00,55.8,47.6,30.36,North,10,5.0,5.0,74,0.00,,,0.00,Wunderground v.1.15,2016-02-06 02:04:00,
2016-02-05 18:14:00,55.7,47.5,30.36,North,4,4.0,4.0,74,0.00,,,0.00,Wunderground v.1.15,2016-02-06 02:14:00,
2016-02-05 18:19:00,55.6,47.8,30.37,North,358,3.0,4.0,75,0.00,,,0.00,Wunderground v.1.15,2016-02-06 02:19:00,
2016-02-05 18:24:00,55.5,47.7,30.37,North,2,3.0,4.0,75,0.00,,,0.00,Wunderground v.1.15,2016-02-06 02:24:00,
2016-02-05 18:29:00,55.4,47.6,30.37,North,350,3.0,4.0,75,0.00,,,0.00,Wunderground v.1.15,2016-02-06 02:29:00,
2016-02-05 18:34:00,55.4,47.6,30.37,North,3,4.0,5.0,75,0.00,,,0.00,Wunderground v.1.15,2016-02-06 02:34:00,
2016-02-05 18:39:00,55.5,47.7,30.38,North,360,4.0,5.0,75,0.00,,,0.00,Wunderground v.1.15,2016-02-06 02:39:00,
2016-02-05 18:49:00,55.5,48.1,30.38,NNE,27,4.0,4.0,76,0.00,,,0.00,Wunderground v.1.15,2016-02-06 02:49:00,
2016-02-05 18:54:00,55.4,48.0,30.38,North,2,4.0,5.0,76,0.00,,,0.00,Wunderground v.1.15,2016-02-06 02:54:00,
2016-02-05 18:59:00,55.2,47.8,30.38,North,1,3.0,5.0,76,0.00,,,0.00,Wunderground v.1.15,2016-02-06 02:59:00,
2016-02-05 19:09:00,54.7,47.6,30.38,NNE,12,2.0,3.0,77,0.00,,,0.00,Wunderground v.1.15,2016-02-06 03:09:00,
2016-02-05 19:14:00,54.6,47.5,30.38,NNE,21,3.0,3.0,77,0.00,,,0.00,Wunderground v.1.15,2016-02-06 03:14:00,
2016-02-05 19:24:00,54.5,47.4,30.38,North,7,5.0,6.0,77,0.00,,,0.00,Wunderground v.1.15,2016-02-06 03:24:00,
2016-02-05 19:29:00,54.5,47.4,30.38,NNE,18,5.0,6.0,77,0.00,,,0.00,Wunderground v.1.15,2016-02-06 03:29:00,
2016-02-05 19:34:00,54.5,47.4,30.39,North,11,6.0,6.0,77,0.00,,,0.00,Wunderground v.1.15,2016-02-06 03:34:00,
2016-02-05 19:49:00,54.3,47.2,30.39,NE,41,5.0,6.0,77,0.00,,,0.00,Wunderground v.1.15,2016-02-06 03:49:00,
2016-02-05 19:54:00,54.4,47.3,30.39,NNE,16,4.0,4.0,77,0.00,,,0.00,Wunderground v.1.15,2016-02-06 03:54:00,
2016-02-05 20:04:00,54.2,47.1,30.39,North,4,3.0,3.0,77,0.00,,,0.00,Wunderground v.1.15,2016-02-06 04:04:00,
2016-02-05 20:09:00,54.1,47.0,30.39,NE,41,3.0,5.0,77,0.00,,,0.00,Wunderground v.1.15,2016-02-06 04:09:00,
2016-02-05 20:14:00,53.9,47.2,30.39,North,7,4.0,5.0,78,0.00,,,0.00,Wunderground v.1.15,2016-02-06 04:14:00,
2016-02-05 20:19:00,53.9,47.2,30.40,NNE,13,4.0,5.0,78,0.00,,,0.00,Wunderground v.1.15,2016-02-06 04:19:00,
2016-02-05 20:24:00,53.8,47.1,30.40,NNE,30,4.0,4.0,78,0.00,,,0.00,Wunderground v.1.15,2016-02-06 04:24:00,
2016-02-05 20:34:00,53.7,47.0,30.40,NNE,27,2.0,4.0,78,0.00,,,0.00,Wunderground v.1.15,2016-02-06 04:34:00,
2016-02-05 20:39:00,53.7,47.0,30.40,NNE,19,3.0,4.0,78,0.00,,,0.00,Wunderground v.1.15,2016-02-06 04:39:00,
2016-02-05 20:44:00,53.7,47.0,30.40,NNE,27,4.0,7.0,78,0.00,,,0.00,Wunderground v.1.15,2016-02-06 04:44:00,
2016-02-05 20:49:00,53.8,47.1,30.40,NE,41,5.0,7.0,78,0.00,,,0.00,Wunderground v.1.15,2016-02-06 04:49:00,
2016-02-05 20:54:00,53.7,47.3,30.40,North,7,5.0,5.0,79,0.00,,,0.00,Wunderground v.1.15,2016-02-06 04:54:00,
2016-02-05 20:59:00,53.7,47.3,30.40,NE,52,5.0,5.0,79,0.00,,,0.00,Wunderground v.1.15,2016-02-06 04:59:00,
2016-02-05 21:04:00,53.4,47.0,30.40,ENE,57,4.0,4.0,79,0.00,,,0.00,Wunderground v.1.15,2016-02-06 05:04:00,
2016-02-05 21:14:00,53.0,47.0,30.41,West,264,2.0,2.0,80,0.00,,,0.00,Wunderground v.1.15,2016-02-06 05:14:00,
2016-02-05 21:19:00,52.9,46.9,30.41,South,182,2.0,2.0,80,0.00,,,0.00,Wunderground v.1.15,2016-02-06 05:19:00,
2016-02-05 21:29:00,52.9,46.6,30.42,NE,42,2.0,2.0,79,0.00,,,0.00,Wunderground v.1.15,2016-02-06 05:29:00,
2016-02-05 21:34:00,53.7,47.0,30.42,NNW,338,2.0,3.0,78,0.00,,,0.00,Wunderground v.1.15,2016-02-06 05:34:00,
2016-02-05 21:39:00,53.6,47.2,30.42,NW,314,3.0,5.0,79,0.00,,,0.00,Wunderground v.1.15,2016-02-06 05:39:00,
2016-02-05 21:49:00,53.6,47.2,30.43,NW,314,5.0,5.0,79,0.00,,,0.00,Wunderground v.1.15,2016-02-06 05:49:00,
2016-02-05 21:54:00,53.6,47.2,30.43,NW,315,3.0,3.0,79,0.00,,,0.00,Wunderground v.1.15,2016-02-06 05:54:00,
2016-02-05 21:59:00,53.4,47.0,30.43,SW,224,2.0,3.0,79,0.00,,,0.00,Wunderground v.1.15,2016-02-06 05:59:00,
2016-02-05 22:04:00,53.4,47.0,30.43,WSW,250,2.0,3.0,79,0.00,,,0.00,Wunderground v.1.15,2016-02-06 06:04:00,
2016-02-05 22:09:00,53.2,46.9,30.44,SW,225,1.0,3.0,79,0.00,,,0.00,Wunderground v.1.15,2016-02-06 06:09:00,
2016-02-05 22:24:00,51.8,46.5,30.43,East,89,1.0,1.0,82,0.00,,,0.00,Wunderground v.1.15,2016-02-06 06:24:00,
2016-02-05 22:29:00,51.7,46.7,30.42,SSE,150,1.0,2.0,83,0.00,,,0.00,Wunderground v.1.15,2016-02-06 06:29:00,
2016-02-05 22:39:00,51.5,46.5,30.42,East,81,1.0,1.0,83,0.00,,,0.00,Wunderground v.1.15,2016-02-06 06:39:00,
2016-02-05 22:44:00,51.4,46.7,30.41,North,11,2.0,3.0,84,0.00,,,0.00,Wunderground v.1.15,2016-02-06 06:44:00,
2016-02-05 22:49:00,51.7,46.7,30.41,NNE,20,2.0,3.0,83,0.00,,,0.00,Wunderground v.1.15,2016-02-06 06:49:00,
2016-02-05 22:59:00,52.0,47.0,30.41,NNW,330,3.0,3.0,83,0.00,,,0.00,Wunderground v.1.15,2016-02-06 06:59:00,
2016-02-05 23:04:00,52.3,47.0,30.41,North,360,3.0,3.0,82,0.00,,,0.00,Wunderground v.1.15,2016-02-06 07:04:00,
2016-02-05 23:09:00,52.6,46.9,30.42,NNE,32,3.0,6.0,81,0.00,,,0.00,Wunderground v.1.15,2016-02-06 07:09:00,
2016-02-05 23:14:00,53.0,47.3,30.42,NNE,13,5.0,5.0,81,0.00,,,0.00,Wunderground v.1.15,2016-02-06 07:14:00,
2016-02-05 23:19:00,53.4,47.0,30.42,North,360,6.0,6.0,79,0.00,,,0.00,Wunderground v.1.15,2016-02-06 07:19:00,
2016-02-05 23:24:00,53.7,47.0,30.42,NE,40,5.0,7.0,78,0.00,,,0.00,Wunderground v.1.15,2016-02-06 07:24:00,